Time;durP1;ratioP1;P1;durP2;ratioP2;P2;SDS_P1;SDS_P2;PMS_P1;PMS_P2;Temp;Humidity;BMP_temperature;BMP_pressure;BME280_temperature;BME280_humidity;BME280_pressure;Samples;Min_cycle;Max_cycle;Signal;HPM_P1;HPM_P2
2024/04/03 00:01:15;;;;;;;3.73;1.20;;;12.20;99.90;;;;;;5094524;28;20200;-57
2024/04/03 00:03:42;;;;;;;2.70;1.13;;;12.40;99.90;;;;;;5094183;28;20215;-56
2024/04/03 00:06:09;;;;;;;6.43;1.47;;;12.50;99.90;;;;;;5094748;28;20733;-57
2024/04/03 00:08:35;;;;;;;2.30;1.13;;;12.50;99.80;;;;;;5094181;28;20224;-56
2024/04/03 00:11:01;;;;;;;1.43;0.80;;;12.60;99.70;;;;;;5094197;28;20203;-56
2024/04/03 00:13:29;;;;;;;2.73;1.23;;;12.60;99.50;;;;;;5094159;28;20205;-56
2024/04/03 00:15:56;;;;;;;2.37;0.90;;;12.60;99.50;;;;;;5094388;28;20234;-56
2024/04/03 00:18:22;;;;;;;3.10;1.20;;;12.60;99.50;;;;;;5093842;28;20201;-57
2024/04/03 00:20:48;;;;;;;2.40;0.70;;;12.50;99.40;;;;;;5093943;28;20258;-56
2024/04/03 00:23:14;;;;;;;3.43;1.20;;;12.50;99.50;;;;;;5094038;28;20207;-55
2024/04/03 00:25:41;;;;;;;2.67;1.13;;;12.50;99.80;;;;;;5094004;28;20577;-56
2024/04/03 00:28:07;;;;;;;3.17;1.00;;;12.40;99.80;;;;;;5093862;28;20207;-57
2024/04/03 00:30:38;;;;;;;1.63;0.80;;;12.30;99.90;;;;;;5093594;28;20776;-57
2024/04/03 00:33:04;;;;;;;4.07;1.23;;;12.30;99.90;;;;;;5093818;28;20649;-57
2024/04/03 00:35:30;;;;;;;4.33;1.20;;;12.20;99.80;;;;;;5093870;28;20222;-55
2024/04/03 00:37:56;;;;;;;3.50;0.93;;;12.10;99.90;;;;;;5094336;28;20211;-56
2024/04/03 00:40:23;;;;;;;2.70;0.93;;;12.10;99.90;;;;;;5094181;28;20635;-56
2024/04/03 00:42:48;;;;;;;2.67;1.03;;;12.10;99.90;;;;;;5093891;28;20234;-57
2024/04/03 00:45:15;;;;;;;3.00;1.10;;;12.10;99.90;;;;;;5093846;28;20192;-57
2024/04/03 00:47:42;;;;;;;3.07;1.23;;;12.20;99.90;;;;;;5093592;28;20204;-57
2024/04/03 00:50:09;;;;;;;2.63;0.80;;;12.20;99.90;;;;;;5093407;28;20694;-57
2024/04/03 00:52:35;;;;;;;3.20;1.00;;;12.20;99.90;;;;;;5093733;28;20212;-57
2024/04/03 00:55:02;;;;;;;2.90;1.30;;;12.20;99.90;;;;;;5093433;28;20610;-56
2024/04/03 00:57:28;;;;;;;2.50;1.13;;;12.20;99.90;;;;;;5093156;28;20249;-56
2024/04/03 00:59:54;;;;;;;4.50;1.30;;;12.20;99.90;;;;;;5093126;28;20224;-56
2024/04/03 01:02:20;;;;;;;2.33;1.00;;;12.10;99.90;;;;;;5093415;28;20270;-56
2024/04/03 01:04:48;;;;;;;2.57;1.13;;;12.10;99.90;;;;;;5093219;28;20556;-56
2024/04/03 01:07:14;;;;;;;2.27;1.00;;;12.00;99.90;;;;;;5092735;28;20200;-56
2024/04/03 01:09:41;;;;;;;2.83;1.00;;;11.80;99.90;;;;;;5093089;28;20231;-55
2024/04/03 01:12:07;;;;;;;2.43;1.20;;;11.70;99.90;;;;;;5093333;28;20211;-56
2024/04/03 01:14:33;;;;;;;1.53;0.77;;;11.70;99.90;;;;;;5092931;28;20205;-56
2024/04/03 01:16:59;;;;;;;4.87;1.23;;;11.50;99.90;;;;;;5093112;28;20204;-55
2024/04/03 01:19:26;;;;;;;4.77;1.00;;;11.40;99.90;;;;;;5092643;28;20275;-55
2024/04/03 01:21:53;;;;;;;2.37;0.90;;;11.30;99.90;;;;;;5084598;28;20569;-58
2024/04/03 01:24:23;;;;;;;4.80;1.30;;;11.30;99.90;;;;;;5093171;28;20204;-56
2024/04/03 01:26:49;;;;;;;2.13;0.70;;;11.10;99.90;;;;;;5092619;28;20207;-56
2024/04/03 01:29:15;;;;;;;3.70;0.80;;;11.10;99.90;;;;;;5092478;28;20216;-55
2024/04/03 01:31:41;;;;;;;1.50;0.60;;;11.00;99.90;;;;;;5092585;28;20320;-56
2024/04/03 01:34:08;;;;;;;3.93;1.40;;;11.00;99.90;;;;;;5092414;28;20201;-58
2024/04/03 01:36:34;;;;;;;3.13;0.97;;;10.90;99.90;;;;;;5092336;28;20568;-56
2024/04/03 01:39:00;;;;;;;2.43;1.10;;;10.90;99.90;;;;;;5092301;28;20265;-56
2024/04/03 01:41:27;;;;;;;2.20;0.90;;;10.90;99.90;;;;;;5092578;28;20224;-57
2024/04/03 01:43:54;;;;;;;2.10;1.20;;;10.80;99.90;;;;;;5092839;28;20204;-57
2024/04/03 01:46:20;;;;;;;3.27;1.33;;;10.80;99.90;;;;;;5092678;28;20269;-58
2024/04/03 01:48:46;;;;;;;2.00;1.10;;;10.80;99.90;;;;;;5092027;28;21088;-57
2024/04/03 01:51:12;;;;;;;2.00;1.00;;;10.90;99.90;;;;;;5092212;28;20207;-57
2024/04/03 01:53:39;;;;;;;3.33;0.93;;;11.00;99.90;;;;;;5092531;28;20204;-57
2024/04/03 01:56:05;;;;;;;2.60;0.90;;;11.10;99.90;;;;;;5092578;28;20207;-56
2024/04/03 01:58:33;;;;;;;5.13;1.07;;;11.10;99.90;;;;;;5092043;28;20215;-57
2024/04/03 02:00:59;;;;;;;3.47;1.60;;;11.10;99.90;;;;;;5092164;28;20216;-56
2024/04/03 02:03:25;;;;;;;2.23;1.20;;;11.10;99.90;;;;;;5092295;28;20192;-57
2024/04/03 02:05:51;;;;;;;4.07;1.07;;;11.00;99.90;;;;;;5091948;28;20200;-56
2024/04/03 02:08:18;;;;;;;3.53;1.27;;;11.00;99.90;;;;;;5092079;28;20589;-56
2024/04/03 02:10:44;;;;;;;5.17;1.00;;;11.00;99.90;;;;;;5092158;28;20212;-56
2024/04/03 02:13:11;;;;;;;1.90;0.97;;;11.00;99.90;;;;;;5091808;28;20677;-56
2024/04/03 02:15:38;;;;;;;1.37;0.83;;;11.10;99.90;;;;;;5092065;28;20212;-55
2024/04/03 02:18:05;;;;;;;1.87;0.83;;;11.10;99.90;;;;;;5092038;28;20224;-55
2024/04/03 02:20:32;;;;;;;3.33;1.20;;;11.20;99.90;;;;;;5092052;28;20223;-60
2024/04/03 02:22:58;;;;;;;3.37;1.00;;;11.10;99.90;;;;;;5092157;28;20200;-58
2024/04/03 02:25:24;;;;;;;5.53;1.07;;;11.10;99.90;;;;;;5091814;28;20742;-55
2024/04/03 02:27:51;;;;;;;1.90;1.17;;;11.10;99.90;;;;;;5092065;28;20196;-56
2024/04/03 02:30:17;;;;;;;2.73;1.27;;;11.00;99.90;;;;;;5091958;28;20220;-55
2024/04/03 02:32:48;;;;;;;2.73;1.23;;;11.00;99.90;;;;;;5091800;28;20830;-57
2024/04/03 02:35:14;;;;;;;2.33;1.10;;;10.90;99.90;;;;;;5092109;28;20269;-56
2024/04/03 02:37:41;;;;;;;1.93;1.10;;;10.90;99.90;;;;;;5091595;28;20208;-56
2024/04/03 02:40:07;;;;;;;4.03;1.30;;;10.80;99.90;;;;;;5091882;28;20600;-56
2024/04/03 02:42:33;;;;;;;2.40;1.00;;;10.80;99.90;;;;;;5091390;28;20578;-56
2024/04/03 02:44:59;;;;;;;3.90;1.00;;;10.80;99.90;;;;;;5093112;28;20201;-56
2024/04/03 02:47:26;;;;;;;3.90;1.23;;;10.80;99.90;;;;;;5095626;28;20204;-57
2024/04/03 02:49:53;;;;;;;3.77;1.07;;;10.80;99.90;;;;;;5096101;28;20219;-56
2024/04/03 02:52:20;;;;;;;2.93;1.10;;;10.80;99.90;;;;;;5095854;28;20206;-56
2024/04/03 02:54:45;;;;;;;3.33;1.10;;;10.80;99.90;;;;;;5096323;28;20212;-56
2024/04/03 02:57:12;;;;;;;3.93;2.00;;;10.80;99.90;;;;;;5095819;28;20696;-58
2024/04/03 02:59:38;;;;;;;3.73;1.63;;;10.80;99.90;;;;;;5095308;28;20219;-57
2024/04/03 03:02:05;;;;;;;3.47;1.00;;;10.80;99.90;;;;;;5095837;28;20207;-57
2024/04/03 03:04:41;;;;;;;4.70;1.30;;;10.80;99.90;;;;;;5095684;28;20200;-56
2024/04/03 03:07:09;;;;;;;3.93;1.27;;;10.90;99.90;;;;;;5095540;28;20200;-56
2024/04/03 03:09:35;;;;;;;2.90;1.10;;;11.00;99.90;;;;;;5095131;28;20330;-56
2024/04/03 03:12:02;;;;;;;3.47;1.20;;;11.10;99.90;;;;;;5095471;28;20196;-55
2024/04/03 03:14:27;;;;;;;4.07;1.77;;;11.20;99.90;;;;;;5095324;28;20207;-56
2024/04/03 03:16:54;;;;;;;2.53;1.77;;;11.20;99.90;;;;;;5095201;28;20608;-55
2024/04/03 03:19:20;;;;;;;4.97;1.13;;;11.30;99.90;;;;;;5095116;28;20220;-57
2024/04/03 03:21:47;;;;;;;1.03;0.67;;;11.40;99.90;;;;;;5095158;28;20222;-55
2024/04/03 03:24:14;;;;;;;2.00;1.10;;;11.50;99.90;;;;;;5095441;28;20328;-56
2024/04/03 03:26:41;;;;;;;3.40;1.20;;;11.50;99.90;;;;;;5094904;28;20204;-56
2024/04/03 03:29:06;;;;;;;3.00;1.10;;;11.50;99.90;;;;;;5095011;28;20242;-56
2024/04/03 03:31:33;;;;;;;1.70;1.07;;;11.60;99.90;;;;;;5094964;28;20197;-56
2024/04/03 03:33:59;;;;;;;2.40;1.23;;;11.60;99.90;;;;;;5095284;28;20204;-56
2024/04/03 03:36:25;;;;;;;1.53;1.00;;;11.60;99.90;;;;;;5095445;28;20199;-56
2024/04/03 03:38:52;;;;;;;1.60;1.30;;;11.40;99.90;;;;;;5094902;28;20224;-56
2024/04/03 03:41:20;;;;;;;2.27;1.00;;;11.30;99.90;;;;;;5094710;28;20705;-56
2024/04/03 03:43:47;;;;;;;2.80;1.00;;;11.20;99.90;;;;;;5094590;28;20208;-56
2024/04/03 03:46:12;;;;;;;1.40;0.90;;;11.00;99.90;;;;;;5095348;28;20255;-56
2024/04/03 03:54:07;;;;;;;3.93;1.30;;;10.70;99.90;;;;;;5088285;28;20206;-56
2024/04/03 03:56:35;;;;;;;2.20;1.20;;;10.60;99.90;;;;;;5094170;28;20245;-55
2024/04/03 03:59:02;;;;;;;1.93;0.97;;;10.50;99.90;;;;;;5094484;28;20220;-56
2024/04/03 04:01:29;;;;;;;6.70;1.13;;;10.50;99.90;;;;;;5094468;28;20578;-56
2024/04/03 04:03:55;;;;;;;3.80;0.93;;;10.40;99.90;;;;;;5094332;28;20200;-56
2024/04/03 04:06:22;;;;;;;3.07;1.00;;;10.40;99.90;;;;;;5094287;28;20207;-56
2024/04/03 04:08:48;;;;;;;4.30;1.00;;;10.50;99.90;;;;;;5094037;28;20257;-56
2024/04/03 04:11:14;;;;;;;1.97;0.97;;;10.60;99.90;;;;;;5094403;28;20200;-56
2024/04/03 04:13:41;;;;;;;1.93;1.00;;;10.60;99.90;;;;;;5094122;28;20218;-56
2024/04/03 04:16:08;;;;;;;4.17;1.20;;;10.60;99.90;;;;;;5094216;28;20201;-56
2024/04/03 04:18:34;;;;;;;1.60;1.00;;;10.70;99.90;;;;;;5093763;28;20224;-56
2024/04/03 04:21:01;;;;;;;2.33;1.13;;;10.80;99.90;;;;;;5093928;28;20212;-56
2024/04/03 04:23:27;;;;;;;1.30;0.87;;;10.80;99.90;;;;;;5093835;28;20579;-58
2024/04/03 04:25:55;;;;;;;3.30;0.93;;;10.70;99.90;;;;;;5093912;28;20196;-56
2024/04/03 04:28:21;;;;;;;3.17;1.10;;;10.80;99.90;;;;;;5093680;28;20650;-58
2024/04/03 04:30:57;;;;;;;1.93;1.10;;;10.70;99.90;;;;;;5093718;28;20196;-58
2024/04/03 04:33:24;;;;;;;2.30;1.00;;;10.80;99.90;;;;;;5093924;28;20204;-57
2024/04/03 04:35:53;;;;;;;2.87;1.00;;;10.70;99.90;;;;;;5093775;28;20208;-58
2024/04/03 04:38:19;;;;;;;2.20;1.00;;;10.70;99.90;;;;;;5093776;28;20253;-56
2024/04/03 04:40:56;;;;;;;1.43;1.17;;;10.70;99.90;;;;;;5093774;28;20228;-59
2024/04/03 04:43:23;;;;;;;1.93;1.00;;;10.80;99.90;;;;;;5093917;28;20196;-58
2024/04/03 04:45:57;;;;;;;4.23;1.40;;;10.80;99.90;;;;;;5093748;28;20690;-57
2024/04/03 04:48:24;;;;;;;2.27;1.30;;;10.90;99.90;;;;;;5093053;28;20231;-57
2024/04/03 04:50:51;;;;;;;5.67;0.80;;;10.90;99.90;;;;;;5093619;28;20257;-57
2024/04/03 04:53:18;;;;;;;3.93;0.93;;;10.90;99.90;;;;;;5093461;28;20579;-56
2024/04/03 04:55:52;;;;;;;2.87;1.40;;;10.90;99.90;;;;;;5093377;28;20212;-56
2024/04/03 04:58:18;;;;;;;2.90;1.50;;;11.00;99.90;;;;;;5092935;28;20698;-57
2024/04/03 05:00:44;;;;;;;2.37;1.70;;;10.90;99.90;;;;;;5093037;28;20273;-57
2024/04/03 05:03:12;;;;;;;3.13;1.40;;;10.90;99.90;;;;;;5093261;28;20200;-58
2024/04/03 05:05:38;;;;;;;6.73;1.80;;;10.90;99.90;;;;;;5093094;28;20204;-58
2024/04/03 05:08:06;;;;;;;2.20;1.43;;;10.90;99.90;;;;;;5091938;28;20223;-55
2024/04/03 05:10:32;;;;;;;4.67;2.30;;;10.90;99.90;;;;;;5093299;28;20223;-58
2024/04/03 05:12:59;;;;;;;2.93;1.60;;;10.90;99.90;;;;;;5093001;28;20204;-56
2024/04/03 05:15:28;;;;;;;2.20;1.50;;;10.90;99.90;;;;;;5092916;28;20204;-57
2024/04/03 05:17:55;;;;;;;1.80;1.00;;;11.00;99.90;;;;;;5092842;28;20208;-56
2024/04/03 05:20:22;;;;;;;2.83;0.90;;;11.10;99.90;;;;;;5092760;28;20224;-56
2024/04/03 05:22:48;;;;;;;2.83;1.00;;;11.20;99.90;;;;;;5092625;28;20684;-57
2024/04/03 05:25:14;;;;;;;1.93;1.23;;;11.20;99.90;;;;;;5093068;28;20212;-57
2024/04/03 05:27:41;;;;;;;4.00;1.50;;;11.30;99.90;;;;;;5092242;28;20673;-56
2024/04/03 05:30:08;;;;;;;3.47;1.30;;;11.50;99.90;;;;;;5092746;28;20220;-56
2024/04/03 05:32:34;;;;;;;1.57;1.10;;;11.50;99.90;;;;;;5092631;28;20208;-56
2024/04/03 05:35:00;;;;;;;2.43;1.10;;;11.60;99.90;;;;;;5092698;28;20665;-57
2024/04/03 05:37:28;;;;;;;1.57;1.00;;;11.70;99.90;;;;;;5092517;28;20207;-57
2024/04/03 05:39:54;;;;;;;2.13;1.00;;;11.80;99.90;;;;;;5092393;28;20228;-57
2024/04/03 05:42:21;;;;;;;4.90;1.27;;;11.80;99.90;;;;;;5092295;28;20227;-57
2024/04/03 05:44:46;;;;;;;2.63;1.20;;;11.90;99.90;;;;;;5092481;28;20204;-57
2024/04/03 05:47:13;;;;;;;2.03;1.20;;;11.90;99.90;;;;;;5092283;28;20285;-57
2024/04/03 05:49:39;;;;;;;4.73;1.13;;;11.90;99.90;;;;;;5092418;28;20228;-58
2024/04/03 05:52:06;;;;;;;4.63;1.20;;;11.80;99.90;;;;;;5092087;28;20699;-57
2024/04/03 05:54:33;;;;;;;2.03;1.33;;;11.80;99.90;;;;;;5092292;28;20249;-57
2024/04/03 05:57:00;;;;;;;4.07;1.27;;;11.90;99.90;;;;;;5083886;28;20226;-58
2024/04/03 05:59:25;;;;;;;5.53;1.20;;;11.90;99.90;;;;;;5092167;28;20586;-57
2024/04/03 06:01:52;;;;;;;3.23;1.13;;;12.00;99.90;;;;;;5092571;28;20216;-57
2024/04/03 06:04:18;;;;;;;1.83;1.00;;;12.10;99.90;;;;;;5093280;28;20287;-57
2024/04/03 06:06:44;;;;;;;2.43;1.20;;;12.30;99.90;;;;;;5092231;28;20631;-57
2024/04/03 06:09:10;;;;;;;3.03;0.90;;;12.40;99.90;;;;;;5091681;28;20281;-57
2024/04/03 06:11:38;;;;;;;2.37;0.83;;;12.60;99.90;;;;;;5091751;28;20204;-57
2024/04/03 06:14:04;;;;;;;0.90;0.77;;;12.80;99.90;;;;;;5092024;28;20204;-57
2024/04/03 06:16:31;;;;;;;2.17;1.00;;;13.20;99.90;;;;;;5091944;28;20196;-57
2024/04/03 06:19:00;;;;;;;1.00;0.60;;;13.30;99.20;;;;;;5091399;28;20216;-56
2024/04/03 06:21:27;;;;;;;1.60;0.60;;;13.40;98.40;;;;;;5091853;28;20228;-56
2024/04/03 06:23:53;;;;;;;1.37;0.70;;;13.60;97.90;;;;;;5091892;28;20670;-55
2024/04/03 06:26:20;;;;;;;2.10;0.80;;;13.70;97.80;;;;;;5091944;28;20238;-56
2024/04/03 06:28:48;;;;;;;3.90;1.00;;;13.80;97.60;;;;;;5091606;28;20729;-57
2024/04/03 06:31:14;;;;;;;1.87;1.27;;;13.80;97.50;;;;;;5091906;28;20220;-56
2024/04/03 06:33:40;;;;;;;2.90;1.30;;;13.80;97.60;;;;;;5091522;28;20215;-56
2024/04/03 06:36:07;;;;;;;1.80;0.90;;;13.70;97.90;;;;;;5091465;28;20196;-57
2024/04/03 06:38:33;;;;;;;2.73;0.73;;;13.80;98.30;;;;;;5091458;28;20228;-56
2024/04/03 06:41:00;;;;;;;4.93;1.43;;;13.90;99.40;;;;;;5091500;28;20238;-57
2024/04/03 06:43:25;;;;;;;2.87;0.97;;;13.90;99.90;;;;;;5091477;28;20403;-56
2024/04/03 06:45:57;;;;;;;3.07;0.90;;;13.80;99.90;;;;;;5091234;28;20208;-56
2024/04/03 06:48:22;;;;;;;4.77;1.60;;;13.70;99.90;;;;;;5091159;28;20325;-57
2024/04/03 06:50:52;;;;;;;2.07;0.90;;;13.70;99.90;;;;;;5091388;28;20226;-57
2024/04/03 06:53:17;;;;;;;3.40;1.63;;;13.60;99.90;;;;;;5091437;28;20200;-56
2024/04/03 06:55:54;;;;;;;5.00;1.20;;;13.60;99.90;;;;;;5091339;28;20207;-57
2024/04/03 06:58:20;;;;;;;4.83;1.20;;;13.70;99.90;;;;;;5091480;28;20253;-56
2024/04/03 07:00:47;;;;;;;2.70;0.77;;;13.70;99.90;;;;;;5091800;28;20224;-56
2024/04/03 07:03:14;;;;;;;5.47;0.90;;;13.70;99.90;;;;;;5092154;28;20666;-57
2024/04/03 07:05:41;;;;;;;2.33;0.97;;;13.80;99.90;;;;;;5091501;28;20257;-57
2024/04/03 07:08:07;;;;;;;3.03;0.93;;;13.90;99.90;;;;;;5091530;28;20261;-57
2024/04/03 07:10:34;;;;;;;4.60;1.53;;;14.10;99.90;;;;;;5091423;28;20626;-58
2024/04/03 07:13:02;;;;;;;1.73;0.80;;;14.30;99.90;;;;;;5091432;28;20200;-56
2024/04/03 07:15:31;;;;;;;3.27;1.10;;;14.60;99.90;;;;;;5091269;28;20203;-56
2024/04/03 07:17:57;;;;;;;2.50;0.93;;;14.70;99.90;;;;;;5090680;28;20730;-55
2024/04/03 07:20:26;;;;;;;2.77;1.10;;;14.80;99.90;;;;;;5090968;28;20224;-56
2024/04/03 07:22:52;;;;;;;6.70;1.30;;;14.80;99.90;;;;;;5091389;28;20213;-54
2024/04/03 07:25:19;;;;;;;2.93;1.10;;;14.70;99.90;;;;;;5091322;28;20202;-54
2024/04/03 07:27:46;;;;;;;1.50;0.90;;;14.60;99.90;;;;;;5090922;28;20349;-55
2024/04/03 07:30:13;;;;;;;1.53;0.90;;;14.40;99.90;;;;;;5091531;28;20212;-55
2024/04/03 07:32:39;;;;;;;2.30;1.13;;;14.20;99.90;;;;;;5094738;28;20208;-54
2024/04/03 07:35:06;;;;;;;3.00;1.50;;;14.10;99.90;;;;;;5094838;28;20196;-55
2024/04/03 07:37:36;;;;;;;2.60;1.10;;;14.20;99.90;;;;;;5095111;28;20200;-55
2024/04/03 07:40:05;;;;;;;3.20;1.20;;;14.20;99.90;;;;;;5086569;28;20224;-55
2024/04/03 07:42:30;;;;;;;4.40;1.40;;;14.30;99.90;;;;;;5094585;28;20226;-55
2024/04/03 07:44:57;;;;;;;3.30;1.70;;;14.50;99.90;;;;;;5094535;28;20691;-54
2024/04/03 07:47:23;;;;;;;4.77;1.30;;;14.60;99.90;;;;;;5094496;28;20212;-54
2024/04/03 07:49:51;;;;;;;1.83;1.30;;;14.70;99.90;;;;;;5094404;28;20228;-55
2024/04/03 07:52:18;;;;;;;2.37;1.00;;;14.90;99.90;;;;;;5094680;28;20209;-55
2024/04/03 07:54:46;;;;;;;3.13;1.23;;;14.90;99.90;;;;;;5094298;28;20291;-55
2024/04/03 07:57:11;;;;;;;3.40;1.70;;;15.00;99.90;;;;;;5094410;28;20246;-55
2024/04/03 07:59:38;;;;;;;2.17;1.30;;;15.20;99.90;;;;;;5093993;28;20224;-59
2024/04/03 08:02:06;;;;;;;3.57;1.60;;;15.40;99.90;;;;;;5094246;28;20216;-55
2024/04/03 08:04:33;;;;;;;2.67;1.63;;;15.40;99.90;;;;;;5094201;28;20200;-55
2024/04/03 08:06:59;;;;;;;2.60;1.10;;;15.40;99.90;;;;;;5094111;28;20438;-54
2024/04/03 08:09:26;;;;;;;2.00;1.15;;;15.60;99.90;;;;;;5093953;28;20216;-54
2024/04/03 08:11:54;;;;;;;4.93;1.52;;;15.80;99.90;;;;;;5094581;28;20204;-54
2024/04/03 08:14:20;;;;;;;3.05;1.35;;;16.10;99.90;;;;;;5094034;28;20200;-55
2024/04/03 08:16:46;;;;;;;3.25;1.40;;;16.40;99.90;;;;;;5094162;28;20647;-53
2024/04/03 08:19:12;;;;;;;2.10;1.30;;;16.60;99.90;;;;;;5093589;28;20713;-55
2024/04/03 08:21:39;;;;;;;3.17;1.60;;;16.60;99.90;;;;;;5094164;28;20223;-58
2024/04/03 08:24:05;;;;;;;1.92;1.05;;;16.50;99.90;;;;;;5095213;28;20207;-54
2024/04/03 08:26:32;;;;;;;2.40;1.35;;;16.50;99.90;;;;;;5094777;28;20228;-54
2024/04/03 08:28:59;;;;;;;2.70;1.35;;;16.50;99.90;;;;;;5095278;28;20239;-62
2024/04/03 08:31:25;;;;;;;1.85;1.20;;;16.40;99.90;;;;;;5095361;28;20202;-56
2024/04/03 08:33:51;;;;;;;3.90;1.48;;;16.40;99.90;;;;;;5094041;28;20246;-60
2024/04/03 08:36:18;;;;;;;2.97;1.25;;;16.40;99.90;;;;;;5094305;28;20200;-60
2024/04/03 08:38:43;;;;;;;4.28;1.38;;;16.20;99.90;;;;;;5093447;28;20220;-58
2024/04/03 08:41:10;;;;;;;2.53;1.20;;;16.00;99.90;;;;;;5093737;28;20223;-59
2024/04/03 08:43:36;;;;;;;2.37;1.23;;;15.90;99.90;;;;;;5093229;28;20732;-58
2024/04/03 08:46:05;;;;;;;3.23;1.23;;;15.90;99.90;;;;;;5094063;28;20288;-55
2024/04/03 08:48:32;;;;;;;2.50;1.23;;;15.90;99.90;;;;;;5093535;28;20281;-55
2024/04/03 08:50:59;;;;;;;2.83;1.00;;;15.90;99.90;;;;;;5093652;28;20208;-54
2024/04/03 08:53:25;;;;;;;2.00;0.97;;;15.70;99.90;;;;;;5093855;28;20287;-55
2024/04/03 08:55:53;;;;;;;4.07;1.47;;;15.80;99.90;;;;;;5093622;28;20212;-55
2024/04/03 08:58:21;;;;;;;4.47;1.50;;;15.90;99.90;;;;;;5093065;28;20196;-54
2024/04/03 09:00:48;;;;;;;4.90;1.33;;;16.00;99.90;;;;;;5093100;28;20211;-54
2024/04/03 09:03:16;;;;;;;5.90;1.37;;;16.10;99.90;;;;;;5093215;28;20207;-55
2024/04/03 09:05:43;;;;;;;7.13;1.58;;;16.20;99.90;;;;;;5093198;28;20204;-54
2024/04/03 09:08:11;;;;;;;3.07;2.10;;;16.20;99.90;;;;;;5092998;28;20200;-55
2024/04/03 09:10:43;;;;;;;1.60;1.10;;;16.30;99.90;;;;;;5092969;28;20223;-57
2024/04/03 09:13:10;;;;;;;4.70;1.23;;;16.30;99.90;;;;;;5085569;28;20200;-55
2024/04/03 09:15:36;;;;;;;2.70;1.10;;;16.40;99.90;;;;;;5093297;28;20242;-55
2024/04/03 09:18:04;;;;;;;1.70;1.20;;;16.70;99.90;;;;;;5092676;28;20231;-55
2024/04/03 09:20:31;;;;;;;3.22;0.90;;;16.80;99.90;;;;;;5092815;28;20701;-55
2024/04/03 09:22:58;;;;;;;6.63;1.10;;;17.10;99.90;;;;;;5092647;28;20271;-56
2024/04/03 09:25:25;;;;;;;1.70;0.98;;;17.40;99.90;;;;;;5092911;28;20204;-55
2024/04/03 09:27:59;;;;;;;10.13;1.70;;;17.60;99.90;;;;;;5092605;28;20304;-54
2024/04/03 09:30:25;;;;;;;2.40;0.90;;;17.70;99.80;;;;;;5092759;28;20227;-54
2024/04/03 09:32:59;;;;;;;2.30;0.80;;;17.70;99.90;;;;;;5092407;28;20196;-55
2024/04/03 09:35:28;;;;;;;2.05;0.70;;;17.80;99.50;;;;;;5092662;28;20662;-55
2024/04/03 09:37:56;;;;;;;2.55;0.70;;;17.90;99.90;;;;;;5092042;28;20204;-55
2024/04/03 09:40:24;;;;;;;1.15;0.70;;;17.80;98.50;;;;;;5092602;28;20717;-54
2024/04/03 09:42:57;;;;;;;2.30;0.73;;;17.90;99.10;;;;;;5092161;28;20224;-57
2024/04/03 09:45:23;;;;;;;1.25;0.77;;;18.00;99.20;;;;;;5092547;28;20866;-61
2024/04/03 09:47:57;;;;;;;3.15;0.70;;;18.10;98.40;;;;;;5091926;28;20258;-56
2024/04/03 09:50:24;;;;;;;2.10;0.60;;;18.20;98.50;;;;;;5095729;22;20661;-60
2024/04/03 09:52:51;;;;;;;1.08;0.52;;;18.70;98.40;;;;;;5061467;28;20221;-59
2024/04/03 09:55:21;;;;;;;2.10;0.70;;;19.40;98.30;;;;;;5063615;28;20262;-59
2024/04/03 09:57:48;;;;;;;2.33;0.52;;;20.10;96.60;;;;;;5062397;28;20208;-59
2024/04/03 10:00:14;;;;;;;2.13;0.75;;;20.50;93.90;;;;;;5060038;28;20228;-60
2024/04/03 10:02:48;;;;;;;1.10;0.50;;;20.60;95.40;;;;;;5060807;28;20231;-59
2024/04/03 10:05:14;;;;;;;2.60;0.75;;;21.00;94.60;;;;;;5060510;28;20255;-59
2024/04/03 10:07:40;;;;;;;1.50;0.82;;;21.20;94.80;;;;;;5059965;28;20201;-60
2024/04/03 10:10:15;;;;;;;1.13;0.68;;;21.40;93.70;;;;;;5063257;28;20224;-59
2024/04/03 10:12:45;;;;;;;1.02;0.65;;;21.10;92.80;;;;;;5063639;28;20201;-65
2024/04/03 10:15:21;;;;;;;2.40;1.75;;;20.80;93.60;;;;;;5060108;28;20201;-63
2024/04/03 10:17:48;;;;;;;1.83;0.73;;;20.60;93.60;;;;;;5060491;28;20232;-61
2024/04/03 10:20:37;;;;;;;2.97;0.88;;;20.50;93.20;;;;;;5063293;28;20266;-60
2024/04/03 10:23:07;;;;;;;1.40;0.57;;;20.50;93.20;;;;;;5060403;28;20225;-61
2024/04/03 10:25:34;;;;;;;1.88;0.60;;;20.40;91.90;;;;;;5059675;28;20201;-60
2024/04/03 10:28:03;;;;;;;1.67;0.50;;;20.30;91.70;;;;;;5061856;28;20677;-60
2024/04/03 10:30:29;;;;;;;2.67;1.13;;;20.30;91.10;;;;;;5063279;28;20220;-60
2024/04/03 10:32:55;;;;;;;1.15;0.73;;;20.30;91.50;;;;;;5061192;28;20677;-60
2024/04/03 10:35:22;;;;;;;2.17;0.73;;;20.30;91.00;;;;;;5059812;28;20275;-60
2024/04/03 10:37:48;;;;;;;1.33;0.75;;;20.60;90.30;;;;;;5060401;28;20205;-60
2024/04/03 10:40:14;;;;;;;0.50;0.50;;;21.00;90.60;;;;;;5062962;28;20608;-65
2024/04/03 10:42:41;;;;;;;0.73;0.40;;;21.40;89.10;;;;;;5060333;28;20220;-62
2024/04/03 10:45:08;;;;;;;0.85;0.40;;;21.60;88.80;;;;;;5062915;28;20670;-61
2024/04/03 10:47:35;;;;;;;0.93;0.57;;;21.50;89.10;;;;;;5062410;28;20205;-62
2024/04/03 10:50:01;;;;;;;1.60;0.75;;;21.30;90.10;;;;;;5059992;28;20820;-61
2024/04/03 10:52:28;;;;;;;1.90;1.05;;;21.10;90.80;;;;;;5059470;28;20233;-61
2024/04/03 10:54:55;;;;;;;3.00;0.98;;;20.80;92.30;;;;;;5060888;28;20292;-61
2024/04/03 10:57:21;;;;;;;1.38;0.65;;;20.80;92.30;;;;;;5063126;28;20232;-61
2024/04/03 10:59:47;;;;;;;1.52;0.73;;;20.70;93.60;;;;;;5061746;28;20739;-61
2024/04/03 11:02:17;;;;;;;2.10;1.00;;;20.90;94.40;;;;;;5059212;28;20214;-61
2024/04/03 11:04:44;;;;;;;1.92;0.68;;;20.90;94.70;;;;;;5059337;28;20220;-62
2024/04/03 11:07:14;;;;;;;0.90;0.60;;;20.80;94.80;;;;;;5062390;28;20236;-62
2024/04/03 11:09:40;;;;;;;4.72;1.10;;;20.60;95.40;;;;;;5063533;28;20287;-62
2024/04/03 11:12:10;;;;;;;2.70;0.80;;;20.30;96.20;;;;;;5066286;28;20189;-63
2024/04/03 11:14:36;;;;;;;2.45;1.15;;;20.20;96.70;;;;;;5067095;28;20618;-63
2024/04/03 11:17:06;;;;;;;3.15;2.40;;;20.00;98.10;;;;;;5064233;28;20209;-63
2024/04/03 11:19:34;;;;;;;1.13;1.02;;;19.90;97.80;;;;;;5062639;28;20221;-59
2024/04/03 11:22:00;;;;;;;0.93;0.38;;;19.70;97.50;;;;;;5064660;28;20218;-62
2024/04/03 11:24:26;;;;;;;0.50;0.50;;;19.50;97.40;;;;;;5066337;28;20266;-62
2024/04/03 11:26:53;;;;;;;1.85;0.47;;;19.10;98.00;;;;;;5065265;28;20213;-63
2024/04/03 11:29:26;;;;;;;1.80;0.95;;;18.80;98.10;;;;;;5062428;28;20647;-64
2024/04/03 11:31:53;;;;;;;2.88;1.63;;;18.60;98.50;;;;;;5063680;28;20212;-63
2024/04/03 11:34:19;;;;;;;1.02;0.63;;;18.30;99.30;;;;;;5066134;28;20205;-63
2024/04/03 11:36:47;;;;;;;2.17;0.75;;;18.10;99.00;;;;;;5065493;28;20212;-62
2024/04/03 11:39:17;;;;;;;1.40;0.60;;;17.90;99.40;;;;;;5062417;28;20308;-62
2024/04/03 11:41:44;;;;;;;1.67;0.63;;;17.80;99.40;;;;;;5062664;28;20283;-62
2024/04/03 11:44:10;;;;;;;1.75;0.50;;;17.70;99.50;;;;;;5062682;28;20217;-62
2024/04/03 11:46:36;;;;;;;1.35;0.73;;;17.50;99.90;;;;;;5062485;28;20204;-62
2024/04/03 11:49:04;;;;;;;0.43;0.30;;;17.40;99.90;;;;;;5064097;28;20234;-62
2024/04/03 11:51:30;;;;;;;1.35;0.43;;;17.30;99.90;;;;;;5066343;28;20215;-62
2024/04/03 11:53:57;;;;;;;0.50;0.38;;;17.30;99.90;;;;;;5064222;28;20209;-62
2024/04/03 11:56:25;;;;;;;1.55;0.47;;;17.30;99.60;;;;;;5062495;28;20201;-61
2024/04/03 11:58:50;;;;;;;1.30;0.70;;;17.40;99.50;;;;;;5062893;28;20225;-60
2024/04/03 12:01:17;;;;;;;2.63;0.93;;;17.30;98.90;;;;;;5065339;28;20208;-61
2024/04/03 12:03:43;;;;;;;2.55;0.50;;;17.40;99.10;;;;;;5065594;28;20316;-61
2024/04/03 12:06:10;;;;;;;0.77;0.30;;;17.40;99.20;;;;;;5062416;28;20289;-61
2024/04/03 12:08:36;;;;;;;0.70;0.38;;;17.20;99.60;;;;;;5062210;28;20201;-65
2024/04/03 12:11:04;;;;;;;1.70;0.47;;;17.20;99.90;;;;;;5064347;28;20455;-58
2024/04/03 12:13:30;;;;;;;0.98;0.60;;;17.10;99.90;;;;;;5065379;28;20193;-57
2024/04/03 12:15:57;;;;;;;0.68;0.35;;;17.10;99.90;;;;;;5063764;28;20208;-59
2024/04/03 12:18:25;;;;;;;0.30;0.30;;;17.10;99.90;;;;;;5061825;28;20197;-60
2024/04/03 12:20:52;;;;;;;0.43;0.40;;;17.20;99.90;;;;;;5062639;28;20264;-59
2024/04/03 12:23:18;;;;;;;1.98;0.40;;;17.30;99.90;;;;;;5065243;28;20300;-59
2024/04/03 12:25:44;;;;;;;0.70;0.40;;;17.20;99.90;;;;;;5065381;28;20288;-59
2024/04/03 12:28:12;;;;;;;0.35;0.30;;;17.10;99.90;;;;;;5061969;28;20292;-59
2024/04/03 12:30:38;;;;;;;2.17;0.82;;;17.10;99.90;;;;;;5061490;28;20253;-59
2024/04/03 12:33:06;;;;;;;0.70;0.43;;;17.10;99.90;;;;;;5064215;28;20476;-59
2024/04/03 12:35:33;;;;;;;0.35;0.30;;;17.00;99.90;;;;;;5065421;28;20193;-59
2024/04/03 12:37:59;;;;;;;0.45;0.22;;;16.80;99.90;;;;;;5062890;28;20212;-59
2024/04/03 12:40:25;;;;;;;1.45;0.43;;;16.70;99.90;;;;;;5061633;28;20255;-58
2024/04/03 12:42:51;;;;;;;1.98;0.55;;;16.70;99.90;;;;;;5062078;28;20221;-59
2024/04/03 12:45:19;;;;;;;1.13;0.50;;;16.70;99.90;;;;;;5064715;28;20204;-59
2024/04/03 12:47:45;;;;;;;2.13;0.90;;;16.60;99.90;;;;;;5064747;28;20234;-59
2024/04/03 12:50:12;;;;;;;1.15;0.50;;;16.50;99.90;;;;;;5064866;28;20635;-59
2024/04/03 12:52:37;;;;;;;0.77;0.50;;;16.40;99.90;;;;;;5064943;28;20201;-59